CST,Max TemperatureF,Mean TemperatureF,Min TemperatureF,Max Dew PointF,MeanDew PointF,Min DewpointF,Max Humidity, Mean Humidity, Min Humidity, Max Sea Level PressureIn, Mean Sea Level PressureIn, Min Sea Level PressureIn, Max VisibilityMiles, Mean VisibilityMiles, Min VisibilityMiles, Max Wind SpeedMPH, Mean Wind SpeedMPH, Max Gust SpeedMPH,PrecipitationIn, CloudCover, Events, WindDirDegrees
2012-11-1,85,72,58,70,64,58,100,82,42,30.08,30.03,29.98,10.0,7.2,0.2,9,3,,0.00,2,Fog,249
2012-11-2,86,75,64,74,67,64,100,85,47,30.09,30.04,30.01,10.0,6.0,0.2,13,5,,0.00,3,Fog,215
2012-11-3,84,70,57,74,66,58,100,87,51,30.14,30.08,30.04,10.0,6.4,0.2,12,3,16,0.00,3,Fog,174
2012-11-4,81,71,61,72,66,61,100,92,63,30.11,30.07,30.03,10.0,6.1,0.2,16,2,21,0.02,4,Fog-Rain-Thunderstorm,116
2012-11-5,78,70,60,70,65,61,100,93,68,30.09,30.01,29.88,10.0,6.2,0.2,12,4,17,0.01,6,Fog-Rain-Thunderstorm,268
2012-11-6,69,59,49,61,54,50,100,88,53,30.10,30.05,29.98,10.0,6.7,0.2,16,4,21,0.00,3,Fog,330
2012-11-7,75,60,46,55,46,38,100,69,27,30.16,30.10,30.04,10.0,8.7,0.5,17,3,21,0.00,0,Fog,325
2012-11-8,71,58,45,52,46,42,100,71,38,30.27,30.20,30.16,10.0,10.0,10.0,9,2,,0.00,0,,92
2012-11-9,74,60,46,62,56,47,100,82,60,30.24,30.19,30.15,10.0,10.0,10.0,14,5,20,0.00,0,,125
2012-11-10,80,68,56,65,61,56,100,78,43,30.20,30.14,30.09,10.0,10.0,10.0,20,8,26,0.00,3,,118
2012-11-11,80,74,69,73,68,65,100,83,64,30.10,30.06,30.02,10.0,9.6,4.0,24,12,37,0.00,6,Rain-Thunderstorm,138
2012-11-12,72,60,46,72,52,41,100,75,46,30.40,30.27,30.08,10.0,9.9,7.0,24,10,32,0.00,4,Rain-Thunderstorm,5
2012-11-13,61,51,41,41,36,32,85,61,36,30.46,30.37,30.31,10.0,10.0,10.0,17,9,25,0.00,0,,12
2012-11-14,64,52,39,40,37,33,93,62,30,30.37,30.31,30.26,10.0,10.0,10.0,14,6,20,0.00,0,,3
2012-11-15,66,51,36,43,38,35,100,68,32,30.33,30.27,30.21,10.0,10.0,10.0,8,4,16,0.00,0,,9
2012-11-16,68,54,41,48,43,40,100,73,37,30.33,30.28,30.24,10.0,10.0,10.0,13,4,18,0.00,0,,4
2012-11-17,70,54,39,45,42,38,99,69,33,30.37,30.31,30.27,10.0,10.0,10.0,8,3,,0.00,0,,16
2012-11-18,71,55,39,47,42,38,100,72,31,30.34,30.29,30.24,10.0,10.0,7.0,8,1,,0.00,0,,44
2012-11-19,73,57,41,54,48,41,100,79,39,30.31,30.24,30.17,10.0,9.6,0.2,6,1,,0.00,0,Fog,50
2012-11-20,76,60,45,55,49,45,100,71,33,30.24,30.18,30.13,10.0,8.2,0.2,7,1,,0.00,0,Fog,339
2012-11-21,79,64,49,59,51,45,100,74,31,30.25,30.19,30.15,10.0,9.8,5.0,13,3,17,0.00,0,,317
2012-11-22,77,60,44,57,52,45,100,78,43,30.24,30.19,30.16,10.0,9.8,7.0,9,2,9,0.00,1,,172
2012-11-23,78,65,52,62,59,53,100,82,52,30.28,30.23,30.19,10.0,8.8,0.2,10,3,,0.00,6,Fog,349
2012-11-24,63,50,38,52,40,34,93,64,35,30.34,30.26,30.20,10.0,10.0,10.0,13,7,18,0.00,1,,359
2012-11-25,69,52,34,59,48,34,100,83,53,30.20,30.13,30.06,10.0,10.0,10.0,10,6,,0.00,0,,137
2012-11-26,73,66,60,70,66,60,100,97,79,30.10,30.06,30.02,10.0,9.9,7.0,18,7,22,0.01,5,Rain,142
2012-11-27,67,56,46,67,57,47,100,97,84,30.33,30.20,30.05,10.0,9.1,2.0,15,6,21,0.01,7,Rain-Thunderstorm,6
2012-11-28,64,52,41,50,46,41,100,86,44,30.45,30.36,30.31,10.0,6.9,0.5,9,6,17,0.01,4,Fog,19
2012-11-29,70,53,36,54,47,37,100,83,49,30.36,30.28,30.22,10.0,8.6,1.8,8,2,16,0.00,0,,95
2012-11-30,75,62,50,61,56,50,100,87,54,30.27,30.21,30.16,10.0,8.1,0.5,9,4,,0.00,1,Fog,127